createdAt,value
2022-08-28T00:00:49.359Z,51.48
2022-08-28T00:05:56.550Z,51.62
2022-08-28T00:11:03.755Z,51.67
2022-08-28T00:16:10.960Z,51.54
2022-08-28T00:21:18.095Z,51.81
2022-08-28T00:26:25.287Z,51.56
2022-08-28T00:31:32.584Z,52.12
2022-08-28T00:36:39.655Z,52.43
2022-08-28T00:41:46.849Z,52.44
2022-08-28T00:46:54.075Z,52.26
2022-08-28T00:52:01.295Z,52.10
2022-08-28T00:57:08.484Z,52.28
2022-08-28T01:02:18.655Z,52.72
2022-08-28T01:07:25.768Z,52.52
2022-08-28T01:12:32.968Z,53.05
2022-08-28T01:17:40.168Z,53.15
2022-08-28T01:22:47.337Z,53.24
2022-08-28T01:27:54.537Z,53.22
2022-08-28T01:33:01.693Z,53.52
2022-08-28T01:38:08.931Z,53.21
2022-08-28T01:43:16.088Z,53.34
2022-08-28T01:48:23.285Z,53.21
2022-08-28T01:53:32.578Z,53.08
2022-08-28T01:58:38.543Z,53.11
2022-08-28T02:03:44.991Z,52.95
2022-08-28T02:08:52.108Z,52.97
2022-08-28T02:13:59.294Z,53.05
2022-08-28T02:19:06.522Z,53.24
2022-08-28T02:24:13.745Z,52.82
2022-08-28T02:29:20.988Z,52.67
2022-08-28T02:34:28.238Z,52.55
2022-08-28T02:39:35.481Z,52.59
2022-08-28T02:44:42.714Z,52.60
2022-08-28T02:49:50.001Z,52.18
2022-08-28T02:54:57.165Z,52.44
2022-08-28T03:00:04.373Z,52.36
2022-08-28T03:05:11.624Z,52.26
2022-08-28T03:10:18.847Z,52.24
2022-08-28T03:15:26.049Z,52.12
2022-08-28T03:20:33.213Z,52.06
2022-08-28T03:25:40.405Z,52.16
2022-08-28T03:30:47.628Z,52.14
2022-08-28T03:35:54.745Z,52.20
2022-08-28T03:41:01.902Z,52.31
2022-08-28T03:46:09.284Z,52.07
2022-08-28T03:51:16.294Z,52.06
2022-08-28T03:56:23.486Z,51.91
2022-08-28T04:01:30.881Z,51.84
2022-08-28T04:06:37.974Z,51.79
2022-08-28T04:11:45.142Z,51.95
2022-08-28T04:16:52.476Z,51.93
2022-08-28T04:21:59.533Z,51.77
2022-08-28T04:27:06.706Z,51.64
2022-08-28T04:32:13.983Z,51.68
2022-08-28T04:37:21.090Z,51.67
2022-08-28T04:42:28.264Z,51.69
2022-08-28T04:47:35.450Z,51.77
2022-08-28T04:52:42.645Z,51.82
2022-08-28T04:57:49.829Z,51.78
2022-08-28T05:02:56.999Z,51.75
2022-08-28T05:08:04.209Z,51.75
2022-08-28T05:13:11.473Z,51.74
2022-08-28T05:18:18.653Z,51.69
2022-08-28T05:23:25.880Z,51.76
2022-08-28T05:28:33.127Z,51.98
2022-08-28T05:33:40.319Z,52.26
2022-08-28T05:38:47.496Z,52.32
2022-08-28T05:43:54.706Z,52.20
2022-08-28T05:49:01.957Z,52.15
2022-08-28T05:54:09.146Z,52.19
2022-08-28T05:59:16.353Z,52.35
2022-08-28T06:04:23.747Z,52.65
2022-08-28T06:09:30.805Z,52.65
2022-08-28T06:14:37.989Z,52.65
2022-08-28T06:19:45.264Z,52.85
2022-08-28T06:24:52.462Z,53.24
2022-08-28T06:29:59.665Z,53.49
2022-08-28T06:35:06.831Z,53.27
2022-08-28T06:40:14.222Z,53.31
2022-08-28T06:45:21.290Z,53.12
2022-08-28T06:50:28.446Z,53.52
2022-08-28T06:55:35.727Z,53.44
2022-08-28T07:00:43.252Z,53.09
2022-08-28T07:05:50.712Z,53.19
2022-08-28T07:10:57.980Z,53.27
2022-08-28T07:16:05.373Z,54.18
2022-08-28T07:21:12.731Z,54.04
2022-08-28T07:26:19.700Z,53.54
2022-08-28T07:31:26.956Z,53.84
2022-08-28T07:36:34.145Z,54.58
2022-08-28T07:41:41.365Z,55.38
2022-08-28T07:46:48.557Z,55.72
2022-08-28T07:51:58.376Z,55.29
2022-08-28T07:57:05.741Z,55.72
2022-08-28T08:02:13.012Z,55.52
2022-08-28T08:07:20.179Z,55.76
2022-08-28T08:12:27.931Z,56.17
2022-08-28T08:17:34.550Z,55.29
2022-08-28T08:22:41.737Z,55.07
2022-08-28T08:27:48.909Z,54.94
2022-08-28T08:32:56.126Z,55.05
2022-08-28T08:38:03.274Z,55.54
2022-08-28T08:43:10.456Z,56.30
2022-08-28T08:48:17.679Z,56.22
2022-08-28T08:53:24.842Z,56.70
2022-08-28T08:58:32.069Z,56.99
2022-08-28T09:03:39.443Z,56.65
2022-08-28T09:08:46.500Z,57.00
2022-08-28T09:13:53.678Z,56.74
2022-08-28T09:19:00.983Z,56.97
2022-08-28T09:24:11.144Z,56.54
2022-08-28T09:29:15.411Z,56.32
2022-08-28T09:34:25.562Z,56.56
2022-08-28T09:39:32.813Z,56.88
2022-08-28T09:44:39.991Z,56.70
2022-08-28T09:49:47.180Z,56.65
2022-08-28T09:54:54.374Z,56.22
2022-08-28T10:00:01.630Z,56.37
2022-08-28T10:05:08.859Z,56.05
2022-08-28T10:10:16.050Z,56.12
2022-08-28T10:15:23.221Z,56.48
2022-08-28T10:20:30.397Z,56.47
2022-08-28T10:25:37.629Z,56.33
2022-08-28T10:30:44.857Z,56.46
2022-08-28T10:35:51.941Z,56.44
2022-08-28T10:40:59.137Z,56.40
2022-08-28T10:46:06.343Z,56.70
2022-08-28T10:51:13.499Z,56.68
2022-08-28T10:56:20.697Z,56.32
2022-08-28T11:01:27.942Z,56.84
2022-08-28T11:06:35.051Z,57.01
2022-08-28T11:11:42.257Z,56.71
2022-08-28T11:16:49.825Z,57.00
2022-08-28T11:21:57.012Z,56.77
2022-08-28T11:27:04.223Z,56.43
2022-08-28T11:32:11.402Z,56.15
2022-08-28T11:37:18.574Z,56.23
2022-08-28T11:42:26.001Z,55.71
2022-08-28T11:47:33.156Z,55.88
2022-08-28T11:52:40.338Z,55.72
2022-08-28T11:57:47.529Z,55.43
2022-08-28T12:02:54.832Z,55.46
2022-08-28T12:08:01.974Z,55.53
2022-08-28T12:13:09.254Z,55.31
2022-08-28T12:18:16.756Z,55.26
2022-08-28T12:23:23.955Z,55.01
2022-08-28T12:28:31.167Z,55.08
2022-08-28T12:33:38.379Z,55.02
2022-08-28T12:38:45.589Z,54.67
2022-08-28T12:43:52.792Z,54.75
2022-08-28T12:48:59.997Z,54.53
2022-08-28T12:54:08.161Z,54.33
2022-08-28T12:59:15.348Z,53.78
2022-08-28T13:04:22.527Z,53.72
2022-08-28T13:09:29.707Z,53.75
2022-08-28T13:14:36.893Z,53.65
2022-08-28T13:19:44.130Z,53.06
2022-08-28T13:24:51.368Z,53.10
2022-08-28T13:29:59.993Z,53.08
2022-08-28T13:35:05.710Z,53.01
2022-08-28T13:40:30.354Z,52.21
2022-08-28T13:45:22.206Z,51.83
2022-08-28T13:50:29.402Z,51.50
2022-08-28T13:55:36.582Z,51.71
2022-08-28T14:00:43.855Z,50.94
2022-08-28T14:05:50.942Z,51.03
2022-08-28T14:10:58.146Z,50.80
2022-08-28T14:16:05.346Z,51.23
2022-08-28T14:21:12.514Z,51.35
2022-08-28T14:26:19.772Z,51.11
2022-08-28T14:31:27.046Z,50.96
2022-08-28T14:36:36.275Z,50.52
2022-08-28T14:41:43.455Z,50.95
2022-08-28T14:46:50.708Z,50.72
2022-08-28T14:51:57.931Z,49.56
2022-08-28T14:57:05.111Z,49.64
2022-08-28T15:02:12.298Z,49.87
2022-08-28T15:07:19.490Z,49.64
2022-08-28T15:12:26.666Z,49.19
2022-08-28T15:17:34.666Z,49.24
2022-08-28T15:22:41.121Z,49.28
2022-08-28T15:27:48.329Z,49.27
2022-08-28T15:32:55.523Z,49.44
2022-08-28T15:38:02.977Z,49.13
2022-08-28T15:43:10.178Z,49.33
2022-08-28T15:48:17.352Z,49.54
2022-08-28T15:53:24.556Z,49.52
2022-08-28T15:58:31.736Z,49.67
2022-08-28T16:03:39.023Z,49.90
2022-08-28T16:08:46.219Z,49.83
2022-08-28T16:13:53.384Z,50.06
2022-08-28T16:19:00.598Z,50.38
2022-08-28T16:24:07.760Z,50.41
2022-08-28T16:29:14.950Z,50.42
2022-08-28T16:34:22.126Z,50.42
2022-08-28T16:39:29.297Z,50.47
2022-08-28T16:44:36.500Z,50.48
2022-08-28T16:49:43.686Z,50.45
2022-08-28T16:54:50.904Z,50.49
2022-08-28T16:59:58.118Z,50.43
2022-08-28T17:05:05.341Z,50.62
2022-08-28T17:10:12.521Z,50.69
2022-08-28T17:15:19.834Z,50.56
2022-08-28T17:20:28.744Z,50.45
2022-08-28T17:25:35.987Z,50.46
2022-08-28T17:30:43.389Z,50.51
2022-08-28T17:35:52.147Z,50.36
2022-08-28T17:40:58.013Z,50.49
2022-08-28T17:46:07.202Z,50.50
2022-08-28T17:51:14.678Z,50.37
2022-08-28T17:56:35.996Z,50.17
2022-08-28T18:01:32.464Z,50.08
2022-08-28T18:06:39.966Z,50.03
2022-08-28T18:11:47.487Z,50.04
2022-08-28T18:16:55.092Z,50.11
2022-08-28T18:22:02.620Z,50.11
2022-08-28T18:27:10.217Z,50.12
2022-08-28T18:32:17.832Z,49.85
2022-08-28T18:37:25.342Z,49.62
2022-08-28T18:42:32.960Z,49.48
2022-08-28T18:47:40.570Z,49.38
2022-08-28T18:52:48.228Z,49.35
2022-08-28T18:57:55.803Z,49.57
2022-08-28T19:03:03.599Z,49.58
2022-08-28T19:08:11.120Z,49.76
2022-08-28T19:13:18.644Z,49.59
2022-08-28T19:18:26.266Z,49.41
2022-08-28T19:23:33.877Z,49.75
2022-08-28T19:28:41.488Z,49.54
2022-08-28T19:33:51.661Z,49.71
2022-08-28T19:38:59.222Z,50.24
2022-08-28T19:44:06.789Z,50.13
2022-08-28T19:49:14.406Z,50.35
2022-08-28T19:54:22.125Z,50.54
2022-08-28T19:59:29.735Z,50.56
2022-08-28T20:04:37.355Z,50.36
2022-08-28T20:09:45.224Z,49.86
2022-08-28T20:14:52.915Z,49.74
2022-08-28T20:20:03.059Z,49.92
2022-08-28T20:25:08.112Z,50.01
2022-08-28T20:30:15.449Z,50.14
2022-08-28T20:35:22.628Z,50.34
2022-08-28T20:40:29.982Z,50.40
2022-08-28T20:45:37.085Z,50.69
2022-08-28T20:50:44.263Z,50.98
2022-08-28T20:55:51.470Z,51.25
2022-08-28T21:00:59.419Z,52.10
2022-08-28T21:06:05.868Z,51.89
2022-08-28T21:11:13.043Z,51.79
2022-08-28T21:16:20.336Z,51.73
2022-08-28T21:21:27.477Z,52.03
2022-08-28T21:26:34.665Z,51.92
2022-08-28T21:31:41.855Z,52.08
2022-08-28T21:36:50.392Z,52.09
2022-08-28T21:41:56.256Z,52.35
2022-08-28T21:47:03.507Z,51.87
2022-08-28T21:52:10.697Z,51.47
2022-08-28T21:57:17.946Z,51.29
2022-08-28T22:02:25.314Z,51.26
2022-08-28T22:07:32.462Z,51.24
2022-08-28T22:12:39.649Z,51.25
2022-08-28T22:17:47.043Z,51.37
2022-08-28T22:22:54.313Z,51.42
2022-08-28T22:28:01.467Z,51.26
2022-08-28T22:33:09.185Z,51.52
2022-08-28T22:38:16.389Z,51.43
2022-08-28T22:43:23.689Z,51.30
2022-08-28T22:48:31.706Z,51.00
2022-08-28T22:53:38.929Z,50.59
2022-08-28T22:58:46.122Z,50.60
2022-08-28T23:03:53.385Z,50.28
2022-08-28T23:09:00.588Z,50.35
2022-08-28T23:14:07.779Z,50.43
2022-08-28T23:19:16.609Z,50.31
2022-08-28T23:24:25.562Z,50.32
2022-08-28T23:29:32.745Z,49.89
2022-08-28T23:34:40.046Z,50.19
2022-08-28T23:39:47.240Z,49.76
2022-08-28T23:44:58.016Z,49.33
2022-08-28T23:50:05.194Z,49.49
2022-08-28T23:55:12.460Z,49.22
